Jackson Belden, Ohio
Current Conditions -  °F | °C
As of 7:51 PM on Friday 24 Oct 2014 (Local Time) from KCAK Reporting Station
Broken Clouds Broken Clouds  
Wind Chill: 56°   Ceiling: 4100
Heat Index: 56°   Visibility: 9mi
Dew Point: 39°   Wind: 0mph
Humidity: 53%   Direction: NA
Pressure: 30.01"   Gusts: NA
Location:  40.8509°N, 81.4472°W
Report Text: KCAK 242351Z 00000KT 9SM BKN041 BKN200 13/04 A3001 RMK AO2 SLP167 T01330039 10167 20122 53004
Loading
Personal Weather Stations






























Interactive Weather Map
Tropical Storm Tracking
New forecast layout! Learn more

10-Day Weather Forecast

Advertisements
Track Severe Weather on mobile